createdAt,value
2023-03-13T00:00:02.070Z,0.00
2023-03-13T00:01:02.081Z,0.00
2023-03-13T00:02:02.088Z,0.00
2023-03-13T00:03:02.071Z,0.00
2023-03-13T00:04:02.055Z,0.00
2023-03-13T00:05:02.131Z,0.00
2023-03-13T00:06:02.037Z,0.00
2023-03-13T00:07:02.066Z,0.00
2023-03-13T00:08:02.053Z,0.00
2023-03-13T00:09:02.022Z,0.00
2023-03-13T00:10:02.020Z,0.00
2023-03-13T00:11:02.021Z,0.00
2023-03-13T00:12:02.008Z,0.00
2023-03-13T00:13:02.010Z,0.00
2023-03-13T00:14:02.021Z,0.00
2023-03-13T00:15:02.028Z,0.00
2023-03-13T00:16:02.018Z,0.00
2023-03-13T00:17:02.046Z,0.00
2023-03-13T00:18:01.976Z,0.00
2023-03-13T00:19:01.983Z,0.00
2023-03-13T00:20:01.985Z,0.00
2023-03-13T00:21:01.980Z,0.00
2023-03-13T00:22:01.959Z,0.00
2023-03-13T00:23:01.982Z,0.00
2023-03-13T00:24:01.966Z,0.00
2023-03-13T00:25:01.971Z,0.00
2023-03-13T00:26:01.956Z,0.00
2023-03-13T00:27:01.952Z,0.00
2023-03-13T00:28:01.931Z,0.00
2023-03-13T00:29:01.933Z,0.00
2023-03-13T00:30:01.920Z,0.00
2023-03-13T00:31:02.033Z,0.00
2023-03-13T00:32:01.980Z,0.00
2023-03-13T00:33:01.968Z,0.00
2023-03-13T00:34:01.934Z,0.00
2023-03-13T00:35:01.896Z,0.00
2023-03-13T00:36:01.933Z,0.00
2023-03-13T00:37:01.904Z,0.00
2023-03-13T00:38:01.888Z,0.00
2023-03-13T00:39:01.897Z,0.00
2023-03-13T00:40:01.930Z,0.00
2023-03-13T00:41:01.885Z,0.00
2023-03-13T00:42:01.860Z,0.00
2023-03-13T00:43:01.866Z,0.00
2023-03-13T00:44:01.919Z,0.00
2023-03-13T00:45:01.867Z,0.00
2023-03-13T00:46:01.900Z,0.00
2023-03-13T00:47:01.862Z,0.00
2023-03-13T00:48:01.850Z,0.00
2023-03-13T00:49:01.830Z,0.00
2023-03-13T00:50:01.880Z,0.00
2023-03-13T00:51:01.832Z,0.00
2023-03-13T00:52:01.836Z,0.00
2023-03-13T00:53:01.810Z,0.00
2023-03-13T00:54:01.818Z,0.00
2023-03-13T00:55:01.816Z,0.00
2023-03-13T00:56:01.822Z,0.00
2023-03-13T00:57:01.819Z,0.00
2023-03-13T00:58:01.789Z,0.00
2023-03-13T00:59:01.803Z,0.00
2023-03-13T01:00:01.797Z,0.00
2023-03-13T01:01:01.787Z,0.00
2023-03-13T01:02:01.799Z,0.00
2023-03-13T01:03:01.959Z,0.00
2023-03-13T01:04:01.769Z,0.00
2023-03-13T01:05:01.772Z,0.00
2023-03-13T01:06:01.774Z,0.00
2023-03-13T01:07:01.763Z,0.00
2023-03-13T01:08:01.752Z,0.00
2023-03-13T01:09:01.739Z,0.00
2023-03-13T01:10:01.758Z,0.00
2023-03-13T01:11:01.745Z,0.00
2023-03-13T01:12:01.857Z,0.00
2023-03-13T01:13:01.723Z,0.00
2023-03-13T01:14:01.760Z,0.00
2023-03-13T01:15:01.725Z,0.00
2023-03-13T01:16:01.773Z,0.00
2023-03-13T01:17:01.719Z,0.00
2023-03-13T01:18:01.708Z,0.00
2023-03-13T01:19:01.737Z,0.00
2023-03-13T01:20:01.716Z,0.00
2023-03-13T01:21:01.692Z,0.00
2023-03-13T01:22:01.698Z,0.00
2023-03-13T01:23:01.678Z,0.00
2023-03-13T01:24:01.706Z,0.00
2023-03-13T01:25:01.668Z,0.00
2023-03-13T01:26:01.681Z,0.00
2023-03-13T01:27:01.777Z,0.00
2023-03-13T01:28:01.689Z,0.00
2023-03-13T01:29:01.675Z,0.00
2023-03-13T01:30:01.684Z,0.00
2023-03-13T01:31:01.731Z,0.00
2023-03-13T01:32:01.644Z,0.00
2023-03-13T01:33:01.651Z,0.00
2023-03-13T01:34:01.641Z,0.00
2023-03-13T01:35:01.626Z,0.00
2023-03-13T01:36:01.745Z,0.00
2023-03-13T01:37:01.625Z,0.00
2023-03-13T01:38:01.628Z,0.00
2023-03-13T01:39:01.625Z,0.00
2023-03-13T01:40:01.618Z,0.00
2023-03-13T01:41:01.608Z,0.00
2023-03-13T01:42:01.590Z,0.00
2023-03-13T01:43:01.580Z,0.00
2023-03-13T01:44:01.637Z,0.00
2023-03-13T01:45:01.588Z,0.00
2023-03-13T01:46:01.649Z,0.00
2023-03-13T01:47:01.562Z,0.00
2023-03-13T01:48:01.579Z,0.00
2023-03-13T01:49:01.559Z,0.00
2023-03-13T01:50:01.568Z,0.00
2023-03-13T01:51:01.555Z,0.00
2023-03-13T01:52:01.558Z,0.00
2023-03-13T01:53:01.535Z,0.00
2023-03-13T01:54:01.566Z,0.00
2023-03-13T01:55:01.542Z,0.00
2023-03-13T01:56:01.550Z,0.00
2023-03-13T01:57:01.517Z,0.00
2023-03-13T01:58:01.516Z,0.00
2023-03-13T01:59:01.509Z,0.00
2023-03-13T02:00:01.541Z,0.00
2023-03-13T02:01:01.510Z,0.00
2023-03-13T02:02:01.581Z,0.00
2023-03-13T02:03:01.612Z,0.00
2023-03-13T02:04:01.500Z,0.00
2023-03-13T02:05:01.491Z,0.00
2023-03-13T02:06:01.483Z,0.00
2023-03-13T02:07:01.468Z,0.00
2023-03-13T02:08:01.482Z,0.00
2023-03-13T02:09:01.480Z,0.00
2023-03-13T02:10:01.487Z,0.00
2023-03-13T02:11:01.466Z,0.00
2023-03-13T02:12:01.462Z,0.00
2023-03-13T02:13:01.452Z,0.00
2023-03-13T02:14:01.466Z,0.00
2023-03-13T02:15:01.427Z,0.00
2023-03-13T02:16:01.579Z,0.00
2023-03-13T02:17:01.430Z,0.00
2023-03-13T02:18:01.439Z,0.00
2023-03-13T02:19:01.430Z,0.00
2023-03-13T02:20:01.422Z,0.00
2023-03-13T02:21:01.413Z,0.00
2023-03-13T02:22:01.417Z,0.00
2023-03-13T02:23:01.411Z,0.00
2023-03-13T02:24:01.405Z,0.00
2023-03-13T02:25:04.872Z,0.00
2023-03-13T02:26:01.386Z,0.00
2023-03-13T02:27:01.375Z,0.00
2023-03-13T02:28:01.376Z,0.00
2023-03-13T02:29:01.364Z,0.00
2023-03-13T02:30:01.376Z,0.00
2023-03-13T02:31:01.449Z,0.00
2023-03-13T02:32:01.380Z,0.00
2023-03-13T02:33:01.523Z,0.00
2023-03-13T02:34:01.345Z,0.00
2023-03-13T02:35:01.356Z,0.00
2023-03-13T02:36:01.449Z,0.00
2023-03-13T02:37:01.319Z,0.00
2023-03-13T02:38:01.326Z,0.00
2023-03-13T02:39:01.315Z,0.00
2023-03-13T02:40:01.313Z,0.00
2023-03-13T02:41:01.317Z,0.00
2023-03-13T02:42:01.302Z,0.00
2023-03-13T02:43:01.306Z,0.00
2023-03-13T02:44:01.296Z,0.00
2023-03-13T02:45:01.284Z,0.00
2023-03-13T02:46:01.293Z,0.00
2023-03-13T02:47:01.327Z,0.00
2023-03-13T02:48:01.398Z,0.00
2023-03-13T02:49:01.268Z,0.00
2023-03-13T02:50:01.303Z,0.00
2023-03-13T02:51:01.299Z,0.00
2023-03-13T02:52:01.275Z,0.00
2023-03-13T02:53:01.271Z,0.00
2023-03-13T02:54:01.273Z,0.00
2023-03-13T02:55:01.261Z,0.00
2023-03-13T02:56:01.244Z,0.00
2023-03-13T02:57:01.245Z,0.00
2023-03-13T02:58:01.252Z,0.00
2023-03-13T02:59:01.250Z,0.00
2023-03-13T03:00:01.228Z,0.00
2023-03-13T03:01:01.315Z,0.00
2023-03-13T03:02:01.247Z,0.00
2023-03-13T03:03:01.224Z,0.00
2023-03-13T03:04:01.287Z,0.00
2023-03-13T03:05:01.230Z,0.00
2023-03-13T03:06:01.233Z,0.00
2023-03-13T03:07:01.212Z,0.00
2023-03-13T03:08:01.203Z,0.00
2023-03-13T03:09:01.184Z,0.00
2023-03-13T03:10:01.181Z,0.00
2023-03-13T03:11:01.189Z,0.00
2023-03-13T03:12:01.182Z,0.00
2023-03-13T03:13:01.172Z,0.00
2023-03-13T03:14:01.158Z,0.00
2023-03-13T03:15:01.154Z,0.00
2023-03-13T03:16:01.229Z,0.00
2023-03-13T03:17:01.163Z,0.00
2023-03-13T03:18:01.145Z,0.00
2023-03-13T03:19:01.149Z,0.00
2023-03-13T03:20:01.162Z,0.00
2023-03-13T03:21:01.133Z,0.00
2023-03-13T03:22:01.141Z,0.00
2023-03-13T03:23:01.112Z,0.00
2023-03-13T03:24:01.128Z,0.00
2023-03-13T03:25:01.111Z,0.00
2023-03-13T03:26:01.101Z,0.00
2023-03-13T03:27:01.120Z,0.00
2023-03-13T03:28:01.108Z,0.00
2023-03-13T03:29:01.104Z,0.00
2023-03-13T03:30:01.101Z,0.00
2023-03-13T03:31:01.067Z,0.00
2023-03-13T03:32:01.173Z,0.00
2023-03-13T03:33:01.129Z,0.00
2023-03-13T03:34:01.074Z,0.00
2023-03-13T03:35:01.070Z,0.00
2023-03-13T03:36:01.193Z,0.00
2023-03-13T03:37:01.041Z,0.00
2023-03-13T03:38:01.038Z,0.00
2023-03-13T03:39:01.049Z,0.00
2023-03-13T03:40:01.035Z,0.00
2023-03-13T03:41:01.045Z,0.00
2023-03-13T03:42:01.025Z,0.00
2023-03-13T03:43:01.021Z,0.00
2023-03-13T03:44:01.010Z,0.00
2023-03-13T03:45:01.008Z,0.00
2023-03-13T03:46:01.082Z,0.00
2023-03-13T03:47:00.996Z,0.00
2023-03-13T03:48:01.006Z,0.00
2023-03-13T03:49:01.002Z,0.00
2023-03-13T03:50:00.995Z,0.00
2023-03-13T03:51:00.982Z,0.00
2023-03-13T03:52:01.016Z,0.00
2023-03-13T03:53:00.970Z,0.00
2023-03-13T03:54:00.964Z,0.00
2023-03-13T03:55:00.970Z,0.00
2023-03-13T03:56:00.958Z,0.00
2023-03-13T03:57:00.979Z,0.00
2023-03-13T03:58:00.950Z,0.00
2023-03-13T03:59:00.952Z,0.00
2023-03-13T04:00:00.936Z,0.00
2023-03-13T04:01:00.948Z,0.00
2023-03-13T04:02:01.005Z,0.00
2023-03-13T04:03:01.034Z,0.00
2023-03-13T04:04:00.939Z,0.00
2023-03-13T04:05:00.920Z,0.00
2023-03-13T04:06:00.925Z,0.00
2023-03-13T04:07:00.907Z,0.00
2023-03-13T04:08:00.933Z,0.00
2023-03-13T04:09:00.896Z,0.00
2023-03-13T04:10:00.905Z,0.00
2023-03-13T04:11:00.914Z,0.00
2023-03-13T04:12:00.897Z,0.00
2023-03-13T04:13:00.876Z,0.00
2023-03-13T04:14:00.891Z,0.00
2023-03-13T04:15:00.883Z,0.00
2023-03-13T04:16:00.886Z,0.00
2023-03-13T04:17:00.912Z,0.00
2023-03-13T04:18:00.879Z,0.00
2023-03-13T04:19:00.865Z,0.00
2023-03-13T04:20:00.849Z,0.00
2023-03-13T04:21:00.847Z,0.00
2023-03-13T04:22:00.853Z,0.00
2023-03-13T04:23:00.828Z,0.00
2023-03-13T04:24:00.867Z,0.00
2023-03-13T04:25:00.825Z,0.00
2023-03-13T04:26:00.826Z,0.00
2023-03-13T04:27:00.812Z,0.00
2023-03-13T04:28:00.819Z,0.00
2023-03-13T04:29:00.813Z,0.00
2023-03-13T04:30:00.822Z,0.00
2023-03-13T04:31:00.924Z,0.00
2023-03-13T04:32:00.808Z,0.00
2023-03-13T04:33:00.914Z,0.00
2023-03-13T04:34:00.809Z,0.00
2023-03-13T04:35:00.827Z,0.00
2023-03-13T04:36:00.815Z,0.00
2023-03-13T04:37:00.793Z,0.00
2023-03-13T04:38:00.781Z,0.00
2023-03-13T04:39:00.774Z,0.00
2023-03-13T04:40:00.798Z,0.00
2023-03-13T04:41:00.762Z,0.00
2023-03-13T04:42:00.760Z,0.00
2023-03-13T04:43:00.745Z,0.00
2023-03-13T04:44:00.757Z,0.00
2023-03-13T04:45:00.734Z,0.00
2023-03-13T04:46:00.827Z,0.00
2023-03-13T04:47:00.722Z,0.00
2023-03-13T04:48:00.736Z,0.00
2023-03-13T04:49:00.713Z,0.00
2023-03-13T04:50:00.727Z,0.00
2023-03-13T04:51:00.695Z,0.00
2023-03-13T04:52:00.725Z,0.00
2023-03-13T04:53:00.713Z,0.00
2023-03-13T04:54:00.700Z,0.00
2023-03-13T04:55:00.701Z,0.00
2023-03-13T04:56:00.725Z,0.00
2023-03-13T04:57:00.671Z,0.00
2023-03-13T04:58:00.690Z,0.00
2023-03-13T04:59:00.683Z,0.00
2023-03-13T05:00:00.674Z,0.00
2023-03-13T05:01:00.769Z,0.00
2023-03-13T05:02:00.649Z,0.00
2023-03-13T05:03:00.665Z,0.00
2023-03-13T05:04:00.651Z,0.00
2023-03-13T05:05:00.866Z,0.00
2023-03-13T05:06:00.633Z,0.00
2023-03-13T05:07:00.627Z,0.00
2023-03-13T05:08:00.618Z,0.00
2023-03-13T05:09:00.636Z,0.00
2023-03-13T05:10:00.625Z,0.00
2023-03-13T05:11:00.609Z,0.00
2023-03-13T05:12:00.653Z,0.00
2023-03-13T05:13:00.622Z,0.00
2023-03-13T05:14:00.617Z,0.00
2023-03-13T05:15:00.594Z,0.00
2023-03-13T05:16:00.627Z,0.00
2023-03-13T05:17:00.579Z,0.00
2023-03-13T05:18:00.577Z,0.00
2023-03-13T05:19:00.596Z,0.00
2023-03-13T05:20:00.562Z,0.00
2023-03-13T05:21:00.564Z,0.00
2023-03-13T05:22:00.579Z,0.00
2023-03-13T05:23:00.585Z,0.00
2023-03-13T05:24:00.567Z,0.00
2023-03-13T05:25:00.545Z,0.00
2023-03-13T05:26:00.538Z,0.00
2023-03-13T05:27:00.551Z,0.00
2023-03-13T05:28:00.572Z,0.00
2023-03-13T05:29:00.582Z,0.00
2023-03-13T05:30:00.519Z,0.00
2023-03-13T05:31:00.648Z,0.00
2023-03-13T05:32:00.509Z,0.00
2023-03-13T05:33:00.595Z,0.00
2023-03-13T05:34:00.504Z,0.00
2023-03-13T05:35:00.503Z,0.00
2023-03-13T05:36:00.570Z,0.00
2023-03-13T05:37:00.501Z,0.00
2023-03-13T05:38:00.493Z,0.00
2023-03-13T05:39:00.497Z,0.00
2023-03-13T05:40:00.487Z,0.00
2023-03-13T05:41:00.491Z,0.00
2023-03-13T05:42:00.476Z,0.00
2023-03-13T05:43:00.458Z,0.00
2023-03-13T05:44:00.488Z,0.00
2023-03-13T05:45:00.472Z,0.00
2023-03-13T05:46:00.537Z,0.00
2023-03-13T05:47:01.904Z,0.00
2023-03-13T05:48:00.440Z,0.00
2023-03-13T05:49:00.448Z,0.00
2023-03-13T05:50:00.427Z,0.00
2023-03-13T05:51:00.439Z,0.00
2023-03-13T05:52:00.434Z,4.00
2023-03-13T05:53:00.418Z,4.00
2023-03-13T05:54:00.417Z,4.00
2023-03-13T05:55:00.416Z,4.00
2023-03-13T05:56:00.393Z,4.00
2023-03-13T05:57:00.395Z,4.00
2023-03-13T05:58:00.385Z,8.00
2023-03-13T05:59:00.409Z,8.00
2023-03-13T06:00:00.417Z,8.00
2023-03-13T06:01:00.376Z,8.00
2023-03-13T06:02:00.380Z,8.00
2023-03-13T06:03:00.384Z,12.00
2023-03-13T06:04:00.549Z,12.00
2023-03-13T06:05:00.405Z,8.00
2023-03-13T06:06:00.353Z,12.00
2023-03-13T06:07:00.365Z,12.00
2023-03-13T06:08:00.359Z,8.00
2023-03-13T06:09:00.353Z,12.00
2023-03-13T06:10:00.341Z,12.00
2023-03-13T06:11:00.345Z,16.00
2023-03-13T06:12:00.338Z,20.00
2023-03-13T06:13:13.748Z,20.00
2023-03-13T06:14:00.321Z,20.00
2023-03-13T06:15:00.320Z,16.00
2023-03-13T06:16:00.444Z,16.00
2023-03-13T06:17:00.325Z,12.00
2023-03-13T06:18:00.305Z,16.00
2023-03-13T06:19:00.299Z,16.00
2023-03-13T06:20:00.305Z,16.00
2023-03-13T06:21:00.306Z,20.00
2023-03-13T06:22:00.289Z,12.00
2023-03-13T06:23:00.303Z,16.00
2023-03-13T06:24:00.278Z,16.00
2023-03-13T06:25:00.291Z,8.00
2023-03-13T06:26:00.287Z,16.00
2023-03-13T06:27:00.286Z,16.00
2023-03-13T06:28:00.263Z,12.00
2023-03-13T06:29:00.262Z,12.00
2023-03-13T06:30:00.264Z,16.00
2023-03-13T06:31:00.299Z,16.00
2023-03-13T06:32:00.458Z,20.00
2023-03-13T06:33:00.426Z,20.00
2023-03-13T06:34:00.243Z,12.00
2023-03-13T06:35:00.267Z,24.00
2023-03-13T06:36:00.324Z,20.00
2023-03-13T06:37:00.243Z,16.00
2023-03-13T06:38:00.232Z,20.00
2023-03-13T06:39:00.233Z,28.00
2023-03-13T06:40:00.229Z,20.00
2023-03-13T06:41:00.254Z,20.00
2023-03-13T06:42:00.240Z,36.00
2023-03-13T06:43:00.248Z,28.00
2023-03-13T06:44:00.220Z,24.00
2023-03-13T06:45:00.217Z,36.00
2023-03-13T06:46:00.196Z,24.00
2023-03-13T06:47:00.290Z,24.00
2023-03-13T06:48:00.228Z,28.00
2023-03-13T06:49:00.190Z,20.00
2023-03-13T06:50:00.200Z,24.00
2023-03-13T06:51:00.197Z,24.00
2023-03-13T06:52:00.200Z,28.00
2023-03-13T06:53:00.191Z,28.00
2023-03-13T06:54:00.221Z,28.00
2023-03-13T06:55:00.177Z,24.00
2023-03-13T06:56:00.164Z,20.00
2023-03-13T06:57:00.185Z,16.00
2023-03-13T06:58:00.157Z,24.00
2023-03-13T06:59:00.361Z,28.00
2023-03-13T07:00:00.149Z,24.00
2023-03-13T07:01:00.287Z,20.00
2023-03-13T07:02:00.154Z,28.00
2023-03-13T07:03:00.156Z,28.00
2023-03-13T07:04:00.262Z,32.00
2023-03-13T07:05:00.157Z,28.00
2023-03-13T07:06:00.158Z,24.00
2023-03-13T07:07:00.156Z,20.00
2023-03-13T07:08:00.130Z,20.00
2023-03-13T07:09:00.144Z,28.00
2023-03-13T07:10:00.195Z,28.00
2023-03-13T07:11:00.128Z,32.00
2023-03-13T07:12:00.173Z,28.00
2023-03-13T07:13:00.136Z,16.00
2023-03-13T07:14:14.907Z,24.00
2023-03-13T07:15:00.145Z,24.00
2023-03-13T07:16:00.270Z,28.00
2023-03-13T07:17:00.222Z,28.00
2023-03-13T07:18:00.106Z,20.00
2023-03-13T07:19:00.110Z,32.00
2023-03-13T07:20:00.331Z,20.00
2023-03-13T07:21:00.191Z,20.00
2023-03-13T07:22:00.152Z,24.00
2023-03-13T07:23:00.102Z,20.00
2023-03-13T07:24:00.130Z,28.00
2023-03-13T07:25:00.156Z,28.00
2023-03-13T07:26:00.112Z,32.00
2023-03-13T07:27:07.283Z,24.00
2023-03-13T07:28:00.112Z,24.00
2023-03-13T07:29:00.130Z,20.00
2023-03-13T07:30:00.119Z,28.00
2023-03-13T07:31:00.096Z,28.00
2023-03-13T07:32:00.190Z,24.00
2023-03-13T07:33:00.252Z,28.00
2023-03-13T07:34:00.084Z,28.00
2023-03-13T07:35:00.106Z,52.00
2023-03-13T07:36:00.208Z,48.00
2023-03-13T07:37:00.093Z,44.00
2023-03-13T07:38:00.057Z,44.00
2023-03-13T07:39:00.052Z,40.00
2023-03-13T07:40:00.040Z,44.00
2023-03-13T07:41:00.054Z,68.00
2023-03-13T07:42:00.042Z,100.00
2023-03-13T07:43:00.035Z,124.00
2023-03-13T07:44:00.041Z,152.00
2023-03-13T07:45:00.079Z,148.00
2023-03-13T07:46:00.081Z,156.00
2023-03-13T07:47:00.613Z,144.00
2023-03-13T07:48:00.008Z,136.00
2023-03-13T07:49:00.021Z,140.00
2023-03-13T07:50:00.090Z,112.00
2023-03-13T07:51:00.006Z,140.00
2023-03-13T07:52:00.140Z,160.00
2023-03-13T07:53:00.065Z,120.00
2023-03-13T07:53:59.986Z,104.00
2023-03-13T07:55:00.014Z,88.00
2023-03-13T07:55:59.986Z,88.00
2023-03-13T07:57:00.010Z,92.00
2023-03-13T07:57:59.989Z,84.00
2023-03-13T07:58:59.989Z,64.00
2023-03-13T07:59:59.973Z,56.00
2023-03-13T08:00:59.973Z,52.00
2023-03-13T08:02:00.056Z,60.00
2023-03-13T08:03:00.082Z,72.00
2023-03-13T08:03:59.954Z,52.00
2023-03-13T08:04:59.967Z,44.00
2023-03-13T08:05:59.960Z,44.00
2023-03-13T08:06:59.978Z,44.00
2023-03-13T08:07:59.983Z,44.00
2023-03-13T08:08:59.944Z,36.00
2023-03-13T08:09:59.936Z,36.00
2023-03-13T08:10:59.939Z,36.00
2023-03-13T08:11:59.933Z,32.00
2023-03-13T08:12:59.929Z,32.00
2023-03-13T08:13:59.947Z,32.00
2023-03-13T08:14:59.934Z,32.00
2023-03-13T08:15:59.924Z,32.00
2023-03-13T08:17:00.072Z,32.00
2023-03-13T08:17:59.931Z,32.00
2023-03-13T08:18:59.920Z,32.00
2023-03-13T08:19:59.901Z,32.00
2023-03-13T08:20:59.914Z,36.00
2023-03-13T08:21:59.894Z,32.00
2023-03-13T08:22:59.888Z,32.00
2023-03-13T08:23:59.916Z,32.00
2023-03-13T08:24:59.898Z,32.00
2023-03-13T08:25:59.888Z,36.00
2023-03-13T08:26:59.885Z,48.00
2023-03-13T08:28:02.338Z,40.00
2023-03-13T08:28:59.879Z,40.00
2023-03-13T08:29:59.875Z,36.00
2023-03-13T08:30:59.902Z,40.00
2023-03-13T08:31:59.871Z,44.00
2023-03-13T08:32:59.916Z,60.00
2023-03-13T08:33:59.844Z,76.00
2023-03-13T08:34:59.870Z,68.00
2023-03-13T08:35:59.865Z,52.00
2023-03-13T08:36:59.842Z,56.00
2023-03-13T08:37:59.842Z,88.00
2023-03-13T08:38:59.853Z,56.00
2023-03-13T08:39:59.893Z,56.00
2023-03-13T08:40:59.827Z,56.00
2023-03-13T08:41:59.832Z,56.00
2023-03-13T08:42:59.824Z,44.00
2023-03-13T08:43:59.815Z,40.00
2023-03-13T08:44:59.825Z,40.00
2023-03-13T08:45:59.934Z,36.00
2023-03-13T08:46:59.834Z,36.00
2023-03-13T08:47:59.815Z,48.00
2023-03-13T08:48:59.840Z,56.00
2023-03-13T08:49:59.798Z,52.00
2023-03-13T08:50:59.810Z,56.00
2023-03-13T08:51:59.805Z,60.00
2023-03-13T08:52:59.788Z,52.00
2023-03-13T08:53:59.794Z,64.00
2023-03-13T08:54:59.800Z,56.00
2023-03-13T08:55:59.815Z,40.00
2023-03-13T08:56:59.793Z,44.00
2023-03-13T08:57:59.794Z,44.00
2023-03-13T08:58:59.889Z,44.00
2023-03-13T08:59:59.771Z,44.00
2023-03-13T09:00:59.761Z,32.00
2023-03-13T09:01:59.782Z,40.00
2023-03-13T09:02:59.833Z,40.00
2023-03-13T09:04:03.222Z,48.00
2023-03-13T09:04:59.763Z,48.00
2023-03-13T09:05:59.911Z,56.00
2023-03-13T09:06:59.779Z,68.00
2023-03-13T09:07:59.752Z,56.00
2023-03-13T09:08:59.745Z,56.00
2023-03-13T09:09:59.722Z,48.00
2023-03-13T09:10:59.737Z,64.00
2023-03-13T09:11:59.742Z,60.00
2023-03-13T09:12:59.722Z,52.00
2023-03-13T09:13:59.727Z,72.00
2023-03-13T09:14:59.722Z,76.00
2023-03-13T09:15:59.754Z,92.00
2023-03-13T09:16:59.716Z,56.00
2023-03-13T09:17:59.757Z,40.00
2023-03-13T09:18:59.925Z,52.00
2023-03-13T09:20:01.208Z,48.00
2023-03-13T09:20:59.919Z,48.00
2023-03-13T09:21:59.685Z,72.00
2023-03-13T09:22:59.691Z,76.00
2023-03-13T09:23:59.690Z,100.00
2023-03-13T09:24:59.687Z,88.00
2023-03-13T09:25:59.706Z,84.00
2023-03-13T09:27:01.771Z,76.00
2023-03-13T09:27:59.691Z,76.00
2023-03-13T09:28:59.676Z,72.00
2023-03-13T09:29:59.671Z,80.00
2023-03-13T09:30:59.691Z,104.00
2023-03-13T09:31:59.677Z,112.00
2023-03-13T09:32:59.805Z,124.00
2023-03-13T09:33:59.652Z,104.00
2023-03-13T09:34:59.655Z,96.00
2023-03-13T09:35:59.713Z,104.00
2023-03-13T09:36:59.639Z,120.00
2023-03-13T09:37:59.641Z,108.00
2023-03-13T09:38:59.617Z,88.00
2023-03-13T09:39:59.635Z,84.00
2023-03-13T09:41:05.988Z,96.00
2023-03-13T09:41:59.616Z,84.00
2023-03-13T09:42:59.620Z,108.00
2023-03-13T09:43:59.627Z,92.00
2023-03-13T09:44:59.624Z,120.00
2023-03-13T09:45:59.735Z,160.00
2023-03-13T09:46:59.590Z,136.00
2023-03-13T09:47:59.609Z,144.00
2023-03-13T09:48:59.594Z,144.00
2023-03-13T09:49:59.581Z,104.00
2023-03-13T09:50:59.572Z,120.00
2023-03-13T09:51:59.601Z,84.00
2023-03-13T09:52:59.567Z,88.00
2023-03-13T09:53:59.566Z,104.00
2023-03-13T09:54:59.576Z,124.00
2023-03-13T09:55:59.580Z,108.00
2023-03-13T09:56:59.553Z,128.00
2023-03-13T09:57:59.547Z,108.00
2023-03-13T09:58:59.557Z,188.00
2023-03-13T09:59:59.559Z,404.00
2023-03-13T10:00:59.552Z,188.00
2023-03-13T10:01:59.684Z,132.00
2023-03-13T10:02:59.537Z,180.00
2023-03-13T10:03:59.572Z,236.00
2023-03-13T10:04:59.550Z,180.00
2023-03-13T10:05:59.528Z,144.00
2023-03-13T10:06:59.527Z,188.00
2023-03-13T10:07:59.556Z,252.00
2023-03-13T10:08:59.505Z,260.00
2023-03-13T10:09:59.520Z,220.00
2023-03-13T10:10:59.514Z,396.00
2023-03-13T10:11:59.507Z,216.00
2023-03-13T10:12:59.489Z,264.00
2023-03-13T10:13:59.511Z,340.00
2023-03-13T10:14:59.509Z,288.00
2023-03-13T10:15:59.550Z,284.00
2023-03-13T10:16:59.487Z,240.00
2023-03-13T10:17:59.480Z,216.00
2023-03-13T10:18:59.474Z,188.00
2023-03-13T10:19:59.469Z,212.00
2023-03-13T10:20:59.478Z,268.00
2023-03-13T10:21:59.469Z,268.00
2023-03-13T10:22:59.450Z,256.00
2023-03-13T10:23:59.449Z,332.00
2023-03-13T10:24:59.450Z,308.00
2023-03-13T10:25:59.471Z,336.00
2023-03-13T10:26:59.435Z,412.00
2023-03-13T10:27:59.434Z,424.00
2023-03-13T10:28:59.429Z,432.00
2023-03-13T10:29:59.427Z,448.00
2023-03-13T10:30:59.505Z,436.00
2023-03-13T10:31:59.456Z,472.00
2023-03-13T10:32:59.497Z,456.00
2023-03-13T10:33:59.466Z,472.00
2023-03-13T10:34:59.421Z,508.00
2023-03-13T10:35:59.453Z,512.00
2023-03-13T10:36:59.401Z,384.00
2023-03-13T10:37:59.398Z,452.00
2023-03-13T10:38:59.401Z,424.00
2023-03-13T10:39:59.390Z,484.00
2023-03-13T10:40:59.403Z,440.00
2023-03-13T10:41:59.380Z,288.00
2023-03-13T10:42:59.390Z,308.00
2023-03-13T10:43:59.403Z,260.00
2023-03-13T10:44:59.379Z,280.00
2023-03-13T10:45:59.364Z,336.00
2023-03-13T10:46:59.423Z,372.00
2023-03-13T10:47:59.389Z,420.00
2023-03-13T10:48:59.363Z,424.00
2023-03-13T10:49:59.353Z,300.00
2023-03-13T10:51:01.944Z,332.00
2023-03-13T10:51:59.353Z,248.00
2023-03-13T10:52:59.354Z,252.00
2023-03-13T10:53:59.337Z,228.00
2023-03-13T10:54:59.342Z,284.00
2023-03-13T10:55:59.341Z,312.00
2023-03-13T10:57:02.148Z,436.00
2023-03-13T10:57:59.332Z,432.00
2023-03-13T10:58:59.335Z,424.00
2023-03-13T10:59:59.343Z,420.00
2023-03-13T11:00:59.310Z,348.00
2023-03-13T11:01:59.322Z,424.00
2023-03-13T11:02:59.471Z,384.00
2023-03-13T11:03:59.451Z,392.00
2023-03-13T11:04:59.301Z,364.00
2023-03-13T11:05:59.308Z,320.00
2023-03-13T11:06:59.310Z,300.00
2023-03-13T11:07:59.314Z,232.00
2023-03-13T11:08:59.297Z,212.00
2023-03-13T11:09:59.298Z,240.00
2023-03-13T11:10:59.281Z,304.00
2023-03-13T11:11:59.286Z,284.00
2023-03-13T11:12:59.278Z,332.00
2023-03-13T11:13:59.264Z,280.00
2023-03-13T11:14:59.327Z,300.00
2023-03-13T11:15:59.382Z,304.00
2023-03-13T11:16:59.250Z,428.00
2023-03-13T11:17:59.262Z,524.00
2023-03-13T11:18:59.238Z,396.00
2023-03-13T11:19:59.321Z,384.00
2023-03-13T11:21:15.616Z,400.00
2023-03-13T11:21:59.294Z,516.00
2023-03-13T11:22:59.233Z,404.00
2023-03-13T11:23:59.234Z,372.00
2023-03-13T11:24:59.242Z,340.00
2023-03-13T11:25:59.249Z,424.00
2023-03-13T11:27:04.624Z,380.00
2023-03-13T11:27:59.223Z,284.00
2023-03-13T11:28:59.220Z,344.00
2023-03-13T11:29:59.369Z,352.00
2023-03-13T11:30:59.200Z,224.00
2023-03-13T11:31:59.274Z,328.00
2023-03-13T11:32:59.317Z,304.00
2023-03-13T11:33:59.191Z,264.00
2023-03-13T11:34:59.199Z,356.00
2023-03-13T11:35:59.290Z,304.00
2023-03-13T11:36:59.193Z,356.00
2023-03-13T11:37:59.199Z,400.00
2023-03-13T11:38:59.188Z,284.00
2023-03-13T11:39:59.195Z,276.00
2023-03-13T11:40:59.172Z,280.00
2023-03-13T11:41:59.190Z,256.00
2023-03-13T11:42:59.179Z,292.00
2023-03-13T11:43:59.179Z,296.00
2023-03-13T11:44:59.148Z,328.00
2023-03-13T11:45:59.285Z,352.00
2023-03-13T11:46:59.262Z,304.00
2023-03-13T11:47:59.160Z,308.00
2023-03-13T11:48:59.150Z,344.00
2023-03-13T11:49:59.140Z,480.00
2023-03-13T11:50:59.190Z,292.00
2023-03-13T11:51:59.189Z,196.00
2023-03-13T11:52:59.153Z,164.00
2023-03-13T11:53:59.490Z,136.00
2023-03-13T11:54:59.430Z,120.00
2023-03-13T11:55:59.128Z,148.00
2023-03-13T11:56:59.125Z,292.00
2023-03-13T11:57:59.125Z,328.00
2023-03-13T11:58:59.112Z,344.00
2023-03-13T11:59:59.106Z,304.00
2023-03-13T12:00:59.156Z,236.00
2023-03-13T12:01:59.144Z,248.00
2023-03-13T12:02:59.095Z,384.00
2023-03-13T12:03:59.258Z,288.00
2023-03-13T12:04:59.107Z,328.00
2023-03-13T12:05:59.081Z,256.00
2023-03-13T12:06:59.072Z,236.00
2023-03-13T12:07:59.102Z,252.00
2023-03-13T12:08:59.076Z,244.00
2023-03-13T12:09:59.077Z,156.00
2023-03-13T12:10:59.071Z,216.00
2023-03-13T12:11:59.083Z,156.00
2023-03-13T12:12:59.054Z,184.00
2023-03-13T12:13:59.088Z,204.00
2023-03-13T12:14:59.055Z,412.00
2023-03-13T12:15:59.047Z,324.00
2023-03-13T12:16:59.146Z,340.00
2023-03-13T12:17:59.087Z,300.00
2023-03-13T12:18:59.033Z,412.00
2023-03-13T12:19:59.049Z,352.00
2023-03-13T12:20:59.037Z,380.00
2023-03-13T12:21:59.148Z,376.00
2023-03-13T12:22:59.028Z,416.00
2023-03-13T12:23:59.227Z,404.00
2023-03-13T12:24:59.023Z,352.00
2023-03-13T12:25:59.011Z,364.00
2023-03-13T12:26:59.011Z,320.00
2023-03-13T12:27:59.061Z,300.00
2023-03-13T12:28:59.012Z,280.00
2023-03-13T12:29:59.000Z,304.00
2023-03-13T12:30:59.069Z,356.00
2023-03-13T12:31:58.990Z,348.00
2023-03-13T12:32:59.032Z,292.00
2023-03-13T12:33:59.017Z,268.00
2023-03-13T12:34:58.988Z,312.00
2023-03-13T12:35:59.020Z,280.00
2023-03-13T12:36:58.975Z,264.00
2023-03-13T12:37:58.990Z,312.00
2023-03-13T12:38:58.970Z,348.00
2023-03-13T12:39:59.004Z,356.00
2023-03-13T12:40:58.970Z,336.00
2023-03-13T12:41:58.971Z,292.00
2023-03-13T12:42:58.965Z,284.00
2023-03-13T12:44:08.776Z,280.00
2023-03-13T12:44:58.996Z,328.00
2023-03-13T12:45:59.245Z,376.00
2023-03-13T12:46:58.968Z,316.00
2023-03-13T12:47:58.990Z,304.00
2023-03-13T12:48:59.026Z,300.00
2023-03-13T12:49:58.950Z,268.00
2023-03-13T12:50:58.939Z,316.00
2023-03-13T12:51:58.943Z,336.00
2023-03-13T12:52:58.939Z,356.00
2023-03-13T12:53:58.997Z,328.00
2023-03-13T12:54:58.926Z,324.00
2023-03-13T12:55:58.934Z,284.00
2023-03-13T12:56:58.925Z,352.00